Time;durP1;ratioP1;P1;durP2;ratioP2;P2;SDS_P1;SDS_P2;PMS_P1;PMS_P2;Temp;Humidity;BMP_temperature;BMP_pressure;BME280_temperature;BME280_humidity;BME280_pressure;Samples;Min_cycle;Max_cycle;Signal;HPM_P1;HPM_P2
2023/10/24 01:05:21;;;;;;;3.50;1.48;;;;;;;11.67;100.00;97660.84;15268132;19;20298;-53
2023/10/24 01:10:46;;;;;;;4.53;1.63;;;;;;;11.67;100.00;97641.94;15261647;19;20021;-55
2023/10/24 01:16:11;;;;;;;3.53;1.90;;;;;;;11.66;100.00;97656.47;15262304;19;20017;-55
2023/10/24 01:21:46;;;;;;;5.18;1.52;;;;;;;11.66;100.00;97666.41;15267643;19;20022;-57
2023/10/24 01:27:11;;;;;;;5.07;1.80;;;;;;;11.62;100.00;97674.03;15268361;19;20035;-57
2023/10/24 01:32:36;;;;;;;3.38;1.42;;;;;;;11.54;100.00;97674.97;15271540;19;20103;-58
2023/10/24 01:38:03;;;;;;;3.42;1.60;;;;;;;11.49;100.00;97660.34;15277880;19;20014;-58
2023/10/24 01:43:28;;;;;;;3.70;1.70;;;;;;;11.46;100.00;97647.28;15284033;19;20012;-58
2023/10/24 01:48:52;;;;;;;5.10;1.90;;;;;;;11.41;100.00;97643.25;15279125;19;20022;-58
2023/10/24 01:54:20;;;;;;;3.80;1.55;;;;;;;11.41;100.00;97653.19;15278059;19;20022;-57
2023/10/24 01:59:44;;;;;;;3.75;1.60;;;;;;;11.39;100.00;97674.13;15278011;19;20014;-58
2023/10/24 02:05:16;;;;;;;4.70;1.80;;;;;;;11.38;100.00;97686.78;15266699;19;20014;-59
2023/10/24 02:10:44;;;;;;;4.00;1.50;;;;;;;11.38;100.00;97684.06;15278500;19;20007;-54
2023/10/24 02:16:09;;;;;;;3.70;1.75;;;;;;;11.39;100.00;97682.22;15274678;19;20018;-58
2023/10/24 02:21:34;;;;;;;5.63;1.60;;;;;;;11.39;100.00;97674.13;15281395;19;20011;-58
2023/10/24 02:27:02;;;;;;;4.30;1.58;;;;;;;11.39;100.00;97669.56;15274887;19;20017;-57
2023/10/24 02:32:27;;;;;;;4.60;1.60;;;;;;;11.40;100.00;97667.72;15277933;19;20836;-59
2023/10/24 02:37:51;;;;;;;2.55;1.50;;;;;;;11.40;100.00;97638.88;15272233;19;20429;-57
2023/10/24 02:43:19;;;;;;;4.13;1.73;;;;;;;11.37;100.00;97647.34;15276770;19;20020;-57
2023/10/24 02:48:43;;;;;;;3.42;1.50;;;;;;;11.37;100.00;97654.59;15274409;19;20047;-58
2023/10/24 02:54:09;;;;;;;2.65;1.45;;;;;;;11.37;100.00;97650.03;15276270;19;20018;-57
2023/10/24 02:59:36;;;;;;;2.55;1.40;;;;;;;11.39;100.00;97628.28;15274230;19;20029;-57
2023/10/24 03:05:07;;;;;;;4.03;1.40;;;;;;;11.41;100.00;97619.00;15269964;19;20089;-59
2023/10/24 03:10:32;;;;;;;2.85;1.35;;;;;;;11.44;100.00;97625.84;15274942;19;20021;-56
2023/10/24 03:15:59;;;;;;;2.88;1.17;;;;;;;11.45;100.00;97605.13;15281649;19;20010;-56
2023/10/24 03:21:24;;;;;;;3.38;1.52;;;;;;;11.45;100.00;97619.44;15338270;19;20005;-59
2023/10/24 03:26:48;;;;;;;3.25;1.50;;;;;;;11.45;100.00;97610.53;15301608;19;20010;-59
2023/10/24 03:32:16;;;;;;;1.70;1.25;;;;;;;11.47;100.00;97603.06;15272640;19;20023;-57
2023/10/24 03:37:40;;;;;;;4.07;1.63;;;;;;;11.46;100.00;97593.31;15272014;19;20470;-58
2023/10/24 03:43:05;;;;;;;3.90;1.55;;;;;;;11.43;100.00;97618.78;15269557;19;20725;-56
2023/10/24 03:48:33;;;;;;;2.72;1.38;;;;;;;11.40;100.00;97629.97;15271455;19;20010;-59
2023/10/24 03:53:58;;;;;;;4.53;1.50;;;;;;;11.39;100.00;97633.69;15270144;19;20011;-58
2023/10/24 03:59:22;;;;;;;2.65;1.40;;;;;;;11.40;100.00;97635.38;15270173;19;20022;-57
2023/10/24 04:04:50;;;;;;;2.35;1.30;;;;;;;11.37;100.00;97614.16;15214584;19;20540;-58
2023/10/24 04:10:16;;;;;;;4.20;1.42;;;;;;;11.37;100.00;97614.97;15272543;19;20074;-57
2023/10/24 04:15:41;;;;;;;3.38;1.40;;;;;;;11.37;100.00;97609.59;15267367;19;20014;-58
2023/10/24 04:21:08;;;;;;;2.90;1.33;;;;;;;11.38;100.00;97610.44;15272143;19;20027;-58
2023/10/24 04:26:35;;;;;;;2.67;1.40;;;;;;;11.37;100.00;97614.97;15271309;19;20491;-57
2023/10/24 04:32:00;;;;;;;3.58;1.40;;;;;;;11.40;100.00;97620.00;15271379;19;20363;-57
2023/10/24 04:37:28;;;;;;;2.85;1.30;;;;;;;11.40;100.00;97616.50;15261442;19;20443;-57
2023/10/24 04:42:52;;;;;;;3.40;1.30;;;;;;;11.44;100.00;97619.63;15271578;19;20010;-56
2023/10/24 04:48:18;;;;;;;4.90;1.52;;;;;;;11.48;100.00;97642.50;15264026;19;20014;-58
2023/10/24 04:53:48;;;;;;;2.92;1.10;;;;;;;11.50;100.00;97598.16;15270551;19;20349;-58
2023/10/24 04:59:16;;;;;;;3.83;1.25;;;;;;;11.52;100.00;97579.94;15266267;19;20047;-55
2023/10/24 05:04:47;;;;;;;2.42;1.30;;;;;;;11.55;100.00;97576.00;15267450;19;20024;-59
2023/10/24 05:10:15;;;;;;;2.40;1.35;;;;;;;11.54;100.00;97577.84;15285561;19;20017;-57
2023/10/24 05:15:39;;;;;;;4.75;1.45;;;;;;;11.53;100.00;97595.06;15284142;19;20082;-59
2023/10/24 05:21:04;;;;;;;2.65;1.20;;;;;;;11.52;100.00;97579.06;15282138;19;20062;-55
2023/10/24 05:26:31;;;;;;;2.58;1.50;;;;;;;11.56;100.00;97580.38;15285516;19;20014;-58
2023/10/24 05:31:56;;;;;;;3.67;1.50;;;;;;;11.57;100.00;97573.97;15283999;19;20358;-57
2023/10/24 05:37:20;;;;;;;1.75;1.13;;;;;;;11.57;100.00;97571.25;15281140;19;20094;-58
2023/10/24 05:42:48;;;;;;;3.63;1.40;;;;;;;11.59;100.00;97563.78;15283883;19;20018;-57
2023/10/24 05:48:13;;;;;;;3.03;1.30;;;;;;;11.62;100.00;97568.81;15280161;19;20564;-58
2023/10/24 05:53:38;;;;;;;4.53;1.40;;;;;;;11.63;100.00;97572.38;15279942;19;20010;-59
2023/10/24 05:59:05;;;;;;;2.25;1.20;;;;;;;11.65;100.00;97575.69;15279472;19;20012;-57
2023/10/24 06:04:35;;;;;;;3.63;1.23;;;;;;;11.66;100.00;97570.13;15277932;19;20023;-54
2023/10/24 06:10:00;;;;;;;3.50;1.55;;;;;;;11.66;100.00;97575.53;15277536;19;20530;-59
2023/10/24 06:15:28;;;;;;;3.28;1.20;;;;;;;11.67;100.00;97587.13;15275152;19;20014;-58
2023/10/24 06:20:52;;;;;;;2.13;1.30;;;;;;;11.69;100.00;97568.91;15280673;19;20026;-58
2023/10/24 06:26:19;;;;;;;2.55;1.40;;;;;;;11.70;100.00;97563.31;15277212;19;20014;-58
2023/10/24 06:31:46;;;;;;;5.47;1.38;;;;;;;11.71;100.00;97564.97;15279583;19;20014;-58
2023/10/24 06:37:11;;;;;;;2.25;1.20;;;;;;;11.67;100.00;97544.81;15277398;19;20026;-60
2023/10/24 06:42:35;;;;;;;2.72;1.13;;;;;;;11.63;100.00;97527.34;15278996;19;20043;-55
2023/10/24 06:48:06;;;;;;;2.85;1.40;;;;;;;11.65;100.00;97509.09;15277453;19;20033;-57
2023/10/24 06:53:32;;;;;;;1.75;1.23;;;;;;;11.66;100.00;97483.78;15273971;19;20007;-59
2023/10/24 06:58:57;;;;;;;1.75;1.15;;;;;;;11.71;100.00;97465.16;15274941;19;20021;-56
2023/10/24 07:04:27;;;;;;;2.80;1.27;;;;;;;11.79;100.00;97471.47;15274094;19;20018;-57
2023/10/24 07:09:52;;;;;;;2.70;1.30;;;;;;;11.85;100.00;97474.22;15273925;19;20072;-59
2023/10/24 07:15:17;;;;;;;2.38;1.20;;;;;;;11.93;100.00;97472.41;15275872;19;20031;-58
2023/10/24 07:20:45;;;;;;;2.35;1.20;;;;;;;12.04;100.00;97471.09;15272772;19;20019;-57
2023/10/24 07:26:10;;;;;;;3.88;1.33;;;;;;;12.13;100.00;97464.53;15271343;19;20018;-59
2023/10/24 07:31:35;;;;;;;4.72;1.20;;;;;;;12.22;100.00;97463.34;15274620;19;20022;-58
2023/10/24 07:37:02;;;;;;;3.28;1.20;;;;;;;12.30;100.00;97456.97;15274217;19;20033;-60
2023/10/24 07:42:34;;;;;;;1.50;1.20;;;;;;;12.33;100.00;97456.59;15273273;19;20018;-61
2023/10/24 07:47:58;;;;;;;3.65;1.38;;;;;;;12.33;100.00;97448.50;15274014;19;20487;-60
2023/10/24 07:53:25;;;;;;;4.22;1.35;;;;;;;12.33;100.00;97452.00;15273607;19;20019;-59
2023/10/24 07:58:50;;;;;;;1.88;1.02;;;;;;;12.39;100.00;97431.50;15269434;19;20358;-59
2023/10/24 08:04:14;;;;;;;1.67;1.10;;;;;;;12.49;100.00;97423.03;15269601;19;20021;-60
2023/10/24 08:09:42;;;;;;;3.08;1.20;;;;;;;12.59;100.00;97422.66;15271233;19;20013;-59
2023/10/24 08:15:06;;;;;;;3.03;1.40;;;;;;;12.69;100.00;97454.75;15273562;19;20045;-58
2023/10/24 08:20:31;;;;;;;2.83;1.27;;;;;;;12.79;100.00;97433.59;15270586;19;20451;-58
2023/10/24 08:25:59;;;;;;;1.92;1.20;;;;;;;12.90;100.00;97456.53;15271740;19;20502;-58
2023/10/24 08:31:24;;;;;;;3.33;1.13;;;;;;;12.97;100.00;97461.97;15267507;19;20021;-58
2023/10/24 08:37:02;;;;;;;2.42;1.08;;;;;;;12.96;100.00;97482.75;15269211;19;20483;-56
2023/10/24 08:42:30;;;;;;;2.30;1.20;;;;;;;12.94;100.00;97491.06;15270400;19;20035;-57
2023/10/24 08:47:56;;;;;;;3.95;1.17;;;;;;;12.95;100.00;97487.34;15266488;19;20015;-57
2023/10/24 08:53:21;;;;;;;4.38;1.30;;;;;;;12.97;100.00;97483.59;15270065;19;20017;-58
2023/10/24 08:58:52;;;;;;;5.00;1.40;;;;;;;12.99;100.00;97476.13;15268358;19;20014;-57
2023/10/24 09:04:17;;;;;;;3.90;1.77;;;;;;;13.07;100.00;97474.06;15260431;19;20039;-59
2023/10/24 09:09:41;;;;;;;5.80;2.20;;;;;;;13.09;100.00;97466.59;15268377;19;20018;-58
2023/10/24 09:15:10;;;;;;;3.10;1.70;;;;;;;13.11;100.00;97463.72;15263966;19;20082;-59
2023/10/24 09:20:40;;;;;;;3.92;1.50;;;;;;;13.10;100.00;97433.13;15265734;19;20348;-58
2023/10/24 09:26:06;;;;;;;2.45;1.10;;;;;;;13.15;100.00;97418.16;15268063;19;20082;-58
2023/10/24 09:31:34;;;;;;;3.55;1.10;;;;;;;13.28;100.00;97425.47;15268344;19;20010;-58
2023/10/24 09:37:10;;;;;;;3.63;1.35;;;;;;;13.43;100.00;97406.41;15260097;19;20040;-55
2023/10/24 09:42:37;;;;;;;2.30;1.08;;;;;;;13.58;100.00;97411.66;15267588;19;20017;-56
2023/10/24 09:48:10;;;;;;;3.85;1.40;;;;;;;13.64;100.00;97424.34;15266039;19;20010;-58
2023/10/24 09:53:36;;;;;;;2.85;1.10;;;;;;;13.69;100.00;97424.59;15275078;19;20812;-59
2023/10/24 09:59:01;;;;;;;3.53;1.60;;;;;;;13.70;100.00;97434.38;15279454;19;20036;-56
2023/10/24 10:04:30;;;;;;;3.40;1.45;;;;;;;13.69;100.00;97424.59;15277910;19;20029;-57
2023/10/24 10:09:56;;;;;;;2.72;1.42;;;;;;;13.73;100.00;97423.09;15272430;19;20081;-57
2023/10/24 10:15:37;;;;;;;2.90;1.35;;;;;;;13.83;100.00;97418.13;15279978;19;20011;-56
2023/10/24 10:21:13;;;;;;;2.25;1.17;;;;;;;13.92;100.00;97405.22;15276528;19;20011;-58
2023/10/24 10:26:53;;;;;;;3.50;1.20;;;;;;;13.98;100.00;97398.13;15278651;19;20035;-57
2023/10/24 10:32:29;;;;;;;2.88;1.30;;;;;;;13.98;100.00;97399.00;15280572;19;20043;-59
2023/10/24 10:38:17;;;;;;;3.22;1.50;;;;;;;14.03;100.00;97395.66;15277532;19;20026;-58
2023/10/24 10:43:41;;;;;;;3.67;1.20;;;;;;;14.07;100.00;97391.47;15273196;19;20036;-57
2023/10/24 10:49:08;;;;;;;2.85;1.30;;;;;;;14.14;100.00;97391.47;15276762;19;20049;-59
2023/10/24 10:54:44;;;;;;;2.90;1.20;;;;;;;14.23;100.00;97392.09;15277189;19;20006;-57
2023/10/24 11:00:12;;;;;;;5.47;1.48;;;;;;;14.27;100.00;97396.06;15270673;19;20050;-57
2023/10/24 11:05:57;;;;;;;3.47;1.40;;;;;;;14.25;100.00;97403.56;15269842;19;20353;-58
2023/10/24 11:11:28;;;;;;;1.63;1.10;;;;;;;14.21;100.00;97402.28;15274825;19;20018;-57
2023/10/24 11:16:54;;;;;;;3.40;1.30;;;;;;;14.20;100.00;97395.19;15272891;19;20020;-59
2023/10/24 11:22:19;;;;;;;3.67;1.40;;;;;;;14.23;100.00;97395.63;15269894;19;20345;-57
2023/10/24 11:27:48;;;;;;;6.35;1.38;;;;;;;14.29;100.00;97394.78;15272483;19;20086;-59
2023/10/24 11:33:12;;;;;;;2.45;1.13;;;;;;;14.24;100.00;97382.91;15274540;19;20018;-59
2023/10/24 11:38:36;;;;;;;2.47;1.20;;;;;;;14.20;100.00;97406.88;15271153;19;20077;-59
2023/10/24 11:44:04;;;;;;;2.03;1.25;;;;;;;14.11;100.00;97362.94;15268089;19;20023;-59
2023/10/24 11:49:35;;;;;;;2.13;1.30;;;;;;;14.13;100.00;97365.41;15272725;19;20021;-58
2023/10/24 11:55:00;;;;;;;2.90;1.40;;;;;;;14.15;100.00;97353.34;15272616;19;20011;-56
2023/10/24 12:00:30;;;;;;;3.30;1.50;;;;;;;14.16;100.00;97352.31;15270157;19;20017;-55
2023/10/24 12:06:06;;;;;;;3.03;1.52;;;;;;;14.17;100.00;97353.94;15266337;19;20022;-58
2023/10/24 12:11:30;;;;;;;2.83;1.50;;;;;;;14.20;100.00;97346.44;15271110;19;20476;-59
2023/10/24 12:17:00;;;;;;;3.65;1.48;;;;;;;14.20;100.00;97336.47;15262129;19;20018;-59
2023/10/24 12:22:24;;;;;;;2.55;1.58;;;;;;;14.22;100.00;97347.94;14757890;19;10001130;-56
2023/10/24 12:27:49;;;;;;;3.95;1.45;;;;;;;14.21;100.00;97362.50;15270118;19;20406;-59
2023/10/24 12:33:17;;;;;;;2.30;1.40;;;;;;;14.18;100.00;97368.34;15270395;19;20010;-59
2023/10/24 12:38:49;;;;;;;3.05;1.42;;;;;;;14.06;100.00;97383.56;15268129;19;20010;-58
2023/10/24 12:44:13;;;;;;;4.55;1.45;;;;;;;13.99;100.00;97399.81;15269664;19;20039;-59
2023/10/24 12:49:41;;;;;;;2.72;1.60;;;;;;;13.93;100.00;97422.31;15262241;19;20081;-58
2023/10/24 12:55:10;;;;;;;3.13;1.60;;;;;;;13.83;100.00;97418.13;15268694;19;20023;-57
2023/10/24 13:00:35;;;;;;;3.72;1.73;;;;;;;13.72;100.00;97448.50;15268131;19;20374;-54
2023/10/24 13:06:04;;;;;;;3.65;1.85;;;;;;;13.70;100.00;97464.16;15256687;19;20018;-62
2023/10/24 13:11:29;;;;;;;5.28;2.03;;;;;;;13.66;100.00;97462.88;15256848;19;20018;-58
2023/10/24 13:16:56;;;;;;;3.38;1.90;;;;;;;13.56;100.00;97469.53;15260296;19;20010;-56
2023/10/24 13:22:34;;;;;;;4.55;2.20;;;;;;;13.51;100.00;97482.81;15251611;19;20014;-59
2023/10/24 13:27:58;;;;;;;4.45;2.13;;;;;;;13.39;100.00;97473.59;15268260;19;20492;-58
2023/10/24 13:33:23;;;;;;;4.13;2.22;;;;;;;13.32;100.00;97475.44;15281195;19;20013;-58
2023/10/24 13:39:06;;;;;;;3.35;2.28;;;;;;;13.24;100.00;97474.56;15274375;19;20357;-59
2023/10/24 13:44:30;;;;;;;4.97;2.25;;;;;;;13.22;100.00;97482.06;15280583;19;20775;-57
2023/10/24 13:49:54;;;;;;;3.40;2.30;;;;;;;13.18;100.00;97496.16;15276196;19;20543;-56
2023/10/24 13:55:22;;;;;;;3.70;2.55;;;;;;;13.14;100.00;97498.44;15275902;19;20018;-58
2023/10/24 14:00:47;;;;;;;5.15;2.40;;;;;;;13.08;100.00;97488.44;15278336;19;20022;-58
2023/10/24 14:06:19;;;;;;;5.22;2.78;;;;;;;13.01;100.00;97484.84;15271009;19;20436;-59
2023/10/24 14:11:46;;;;;;;4.37;3.00;;;;;;;12.93;100.00;97484.00;15279519;19;20015;-57
2023/10/24 14:17:11;;;;;;;6.80;3.10;;;;;;;12.89;100.00;97471.06;15275823;19;20022;-58
2023/10/24 14:22:36;;;;;;;6.10;3.08;;;;;;;12.81;100.00;97465.84;15274102;19;20026;-57
2023/10/24 14:28:03;;;;;;;4.38;2.80;;;;;;;12.70;100.00;97467.22;15270762;19;20165;-58
2023/10/24 14:33:28;;;;;;;4.80;3.05;;;;;;;12.67;100.00;97463.06;15276138;19;20798;-58
2023/10/24 14:38:54;;;;;;;5.70;3.10;;;;;;;12.64;100.00;97469.66;15267520;19;20030;-58
2023/10/24 14:44:22;;;;;;;6.40;3.30;;;;;;;12.58;100.00;97458.84;15278436;19;20021;-58
2023/10/24 14:49:48;;;;;;;5.38;3.40;;;;;;;12.53;100.00;97462.13;15272859;19;20019;-58
2023/10/24 14:55:13;;;;;;;5.18;3.10;;;;;;;12.52;100.00;97465.88;15275872;19;20007;-58
2023/10/24 15:00:42;;;;;;;3.65;3.22;;;;;;;12.49;100.00;97471.66;15269746;19;20033;-60
2023/10/24 15:06:07;;;;;;;5.80;3.70;;;;;;;12.45;100.00;97475.78;15275072;19;20014;-59
2023/10/24 15:11:31;;;;;;;5.63;3.20;;;;;;;12.40;100.00;97475.56;15277409;19;20368;-58
2023/10/24 15:16:58;;;;;;;6.90;3.28;;;;;;;12.39;100.00;97474.72;15272125;19;20369;-57
2023/10/24 15:22:23;;;;;;;6.47;3.10;;;;;;;12.39;100.00;97471.19;15274385;19;20018;-56
2023/10/24 15:27:48;;;;;;;6.10;4.00;;;;;;;12.38;100.00;97474.91;15273347;19;20026;-57
2023/10/24 15:33:15;;;;;;;5.93;3.72;;;;;;;12.39;100.00;97463.06;15271509;19;20014;-55
2023/10/24 15:38:41;;;;;;;6.80;3.67;;;;;;;12.37;100.00;97468.66;15272332;19;20070;-59
2023/10/24 15:44:06;;;;;;;5.88;3.88;;;;;;;12.37;100.00;97481.34;15267334;19;20010;-57
2023/10/24 15:49:33;;;;;;;7.07;4.28;;;;;;;12.33;100.00;97479.03;15269312;19;20029;-57
2023/10/24 15:54:58;;;;;;;7.50;4.50;;;;;;;12.31;100.00;97481.09;15270424;19;20019;-58
2023/10/24 16:00:42;;;;;;;7.03;4.57;;;;;;;12.32;100.00;97493.56;15271760;19;20076;-57
2023/10/24 16:06:10;;;;;;;7.57;4.30;;;;;;;12.33;100.00;97492.53;15264995;19;20472;-60
2023/10/24 16:11:34;;;;;;;7.05;3.90;;;;;;;12.31;100.00;97475.69;15274036;19;20031;-59
2023/10/24 16:16:59;;;;;;;5.50;3.83;;;;;;;12.38;100.00;97483.00;15268343;19;20014;-57
2023/10/24 16:22:29;;;;;;;6.40;4.18;;;;;;;12.37;100.00;97492.16;15271291;19;20380;-57
2023/10/24 16:27:55;;;;;;;6.57;4.20;;;;;;;12.36;100.00;97490.47;15271317;19;20526;-58
2023/10/24 16:33:21;;;;;;;6.78;4.47;;;;;;;12.39;100.00;97482.00;15269513;19;20474;-56
2023/10/24 16:38:50;;;;;;;6.18;4.43;;;;;;;12.39;100.00;97488.22;15265090;19;20024;-58
2023/10/24 16:44:14;;;;;;;8.27;4.70;;;;;;;12.38;100.00;97491.94;15264621;19;20014;-59
2023/10/24 16:49:39;;;;;;;8.60;5.13;;;;;;;12.41;100.00;97496.09;15268538;19;20009;-57
2023/10/24 16:55:08;;;;;;;7.95;5.78;;;;;;;12.42;100.00;97484.28;15263883;19;20018;-60
2023/10/24 17:00:34;;;;;;;11.02;6.55;;;;;;;12.34;100.00;97479.88;15276348;19;20031;-56
2023/10/24 17:05:58;;;;;;;6.78;5.70;;;;;;;12.28;100.00;97481.50;15296755;19;20022;-56
2023/10/24 17:11:28;;;;;;;10.13;6.93;;;;;;;12.29;100.00;97483.13;15292457;19;20683;-58
2023/10/24 17:16:53;;;;;;;9.25;7.35;;;;;;;12.27;100.00;97489.78;15294923;19;20022;-56
2023/10/24 17:22:19;;;;;;;10.60;7.03;;;;;;;12.25;100.00;97481.88;15295480;19;20041;-57
2023/10/24 17:27:47;;;;;;;9.18;7.07;;;;;;;12.24;100.00;97484.75;15292431;19;20035;-59
2023/10/24 17:33:12;;;;;;;7.60;6.50;;;;;;;12.23;100.00;97494.72;15294710;19;20010;-56
2023/10/24 17:38:37;;;;;;;9.88;7.60;;;;;;;12.27;100.00;97493.31;15292571;19;20082;-59
2023/10/24 17:44:05;;;;;;;10.55;7.50;;;;;;;12.28;100.00;97495.00;15266964;19;20022;-58
2023/10/24 17:49:31;;;;;;;9.00;7.70;;;;;;;12.30;100.00;97497.50;15291997;19;20010;-58
2023/10/24 17:54:55;;;;;;;8.98;7.72;;;;;;;12.30;100.00;97492.91;15294396;19;20096;-58
2023/10/24 18:00:23;;;;;;;13.15;9.10;;;;;;;12.26;100.00;97499.75;15295668;19;20759;-58
2023/10/24 18:05:47;;;;;;;11.23;8.63;;;;;;;12.25;100.00;97492.69;15290542;19;20029;-59
2023/10/24 18:11:12;;;;;;;11.63;9.23;;;;;;;12.23;100.00;97494.72;15290475;19;20014;-59
2023/10/24 18:16:39;;;;;;;12.80;9.90;;;;;;;12.26;100.00;97499.75;15276105;19;20015;-54
2023/10/24 18:22:10;;;;;;;12.65;10.20;;;;;;;12.21;100.00;97486.00;15276827;19;20021;-59
2023/10/24 18:27:35;;;;;;;13.40;9.75;;;;;;;12.20;100.00;97481.63;15278721;19;20032;-57
2023/10/24 18:33:06;;;;;;;14.90;9.73;;;;;;;12.18;100.00;97470.16;15278330;19;20714;-60
2023/10/24 18:38:39;;;;;;;14.18;10.13;;;;;;;12.10;100.00;97475.72;15276004;19;20017;-59
2023/10/24 18:44:07;;;;;;;14.15;11.07;;;;;;;12.08;100.00;97477.78;15269930;19;20009;-59
2023/10/24 18:49:35;;;;;;;13.13;10.80;;;;;;;12.11;100.00;97480.91;15273559;19;20078;-58
2023/10/24 18:55:00;;;;;;;14.70;11.50;;;;;;;12.19;100.00;97482.63;15269848;19;20074;-49
2023/10/24 19:00:25;;;;;;;12.38;10.63;;;;;;;12.23;100.00;97478.53;15278504;19;20530;-49
2023/10/24 19:05:53;;;;;;;10.93;8.98;;;;;;;12.27;100.00;97479.81;15270090;19;20747;-50
2023/10/24 19:11:18;;;;;;;12.55;8.98;;;;;;;12.28;100.00;97481.50;15267935;19;20011;-50
2023/10/24 19:16:46;;;;;;;10.48;8.73;;;;;;;12.26;100.00;97490.81;15265936;19;20010;-51
2023/10/24 19:22:16;;;;;;;11.27;7.82;;;;;;;12.25;100.00;97487.28;15274149;19;20006;-49
2023/10/24 19:27:41;;;;;;;11.68;8.73;;;;;;;12.25;100.00;97489.97;15272685;19;20014;-49
2023/10/24 19:33:07;;;;;;;9.38;8.15;;;;;;;12.20;100.00;97483.50;15269877;19;20352;-53
2023/10/24 19:38:36;;;;;;;10.15;8.27;;;;;;;12.19;100.00;97485.34;15274484;19;20086;-52
2023/10/24 19:44:02;;;;;;;21.92;9.25;;;;;;;12.19;100.00;97493.44;15270474;19;20024;-49
2023/10/24 19:49:28;;;;;;;19.33;11.00;;;;;;;12.17;100.00;97493.66;15264410;19;20041;-50
2023/10/24 19:54:56;;;;;;;15.80;10.75;;;;;;;12.15;100.00;97497.59;15272547;19;20024;-49
2023/10/24 20:00:25;;;;;;;25.48;12.80;;;;;;;12.13;100.00;97494.22;15272546;19;20024;-50
2023/10/24 20:05:59;;;;;;;19.50;13.10;;;;;;;12.13;100.00;97502.34;15269750;19;20035;-54
2023/10/24 20:11:28;;;;;;;33.85;13.40;;;;;;;12.13;100.00;97505.03;15271971;19;20020;-49
2023/10/24 20:17:16;;;;;;;19.13;12.07;;;;;;;12.12;100.00;97506.06;15270286;19;20010;-51
2023/10/24 20:22:42;;;;;;;18.08;12.13;;;;;;;12.13;100.00;97502.34;15265564;19;20486;-52
2023/10/24 20:28:10;;;;;;;16.52;12.35;;;;;;;12.12;100.00;97497.97;15272072;19;20018;-54
2023/10/24 20:33:36;;;;;;;24.23;12.70;;;;;;;12.13;100.00;97499.63;15269481;19;20025;-52
2023/10/24 20:39:00;;;;;;;13.48;10.60;;;;;;;12.11;100.00;97501.69;15268919;19;20014;-53
2023/10/24 20:44:29;;;;;;;12.75;9.43;;;;;;;12.06;100.00;97498.72;15266160;19;20029;-52
2023/10/24 20:49:57;;;;;;;12.57;9.50;;;;;;;12.04;100.00;97492.69;15268802;19;20341;-51
2023/10/24 20:55:22;;;;;;;21.33;9.18;;;;;;;12.00;100.00;97497.63;15261850;19;20025;-51
2023/10/24 21:00:49;;;;;;;9.88;8.45;;;;;;;12.00;100.00;97501.19;15269198;19;20020;-54
2023/10/24 21:06:15;;;;;;;10.50;8.98;;;;;;;11.99;100.00;97504.91;15266474;19;20020;-49
2023/10/24 21:11:39;;;;;;;10.10;9.02;;;;;;;11.98;100.00;97505.94;15270437;19;20034;-53
2023/10/24 21:17:07;;;;;;;12.25;10.38;;;;;;;11.99;100.00;97520.28;15267426;19;20024;-53
2023/10/24 21:22:31;;;;;;;11.55;9.90;;;;;;;11.99;100.00;97513.00;15267115;19;20026;-53
2023/10/24 21:27:56;;;;;;;13.07;10.40;;;;;;;11.99;100.00;97504.91;15260558;19;20023;-53
2023/10/24 21:33:25;;;;;;;11.48;9.85;;;;;;;12.00;100.00;97495.78;15267001;19;20020;-53
2023/10/24 21:38:51;;;;;;;11.30;10.07;;;;;;;12.00;100.00;97495.78;15264499;19;20021;-49
2023/10/24 21:44:16;;;;;;;11.68;10.20;;;;;;;12.01;100.00;97494.75;15261004;19;20415;-51
2023/10/24 21:49:44;;;;;;;12.18;10.43;;;;;;;12.04;100.00;97495.41;15269170;19;20421;-51
2023/10/24 21:55:09;;;;;;;11.82;10.45;;;;;;;12.06;100.00;97494.16;15278476;19;20078;-49
2023/10/24 22:00:34;;;;;;;12.02;10.27;;;;;;;12.02;100.00;97499.13;15268859;19;20531;-56
2023/10/24 22:06:09;;;;;;;167.95;13.48;;;;;;;11.93;100.00;97488.63;15271344;19;20398;-54
2023/10/24 22:11:34;;;;;;;7.75;7.00;;;;;;;11.81;100.00;97485.59;15279898;19;20025;-54
2023/10/24 22:17:00;;;;;;;7.70;7.00;;;;;;;11.77;100.00;97495.09;15278069;19;20040;-58
2023/10/24 22:22:27;;;;;;;4.53;3.47;;;;;;;11.66;100.00;97496.44;15278758;19;20010;-55
2023/10/24 22:27:53;;;;;;;3.45;3.08;;;;;;;11.61;100.00;97488.09;15278690;19;20014;-54
2023/10/24 22:33:23;;;;;;;6.00;3.28;;;;;;;11.59;100.00;97493.66;15271772;19;20093;-58
2023/10/24 22:38:50;;;;;;;4.85;3.20;;;;;;;11.55;100.00;97492.38;15275067;19;20025;-55
2023/10/24 22:44:15;;;;;;;3.50;3.20;;;;;;;11.51;100.00;97512.66;15272799;19;20712;-56
2023/10/24 22:49:39;;;;;;;4.82;2.80;;;;;;;11.47;100.00;97506.81;15275664;19;20035;-58
2023/10/24 22:55:08;;;;;;;4.05;2.80;;;;;;;11.36;100.00;97504.63;15274815;19;20014;-56
2023/10/24 23:00:33;;;;;;;3.45;2.40;;;;;;;11.26;100.00;97510.28;15279752;19;20010;-55
2023/10/24 23:05:59;;;;;;;2.65;2.30;;;;;;;11.19;100.00;97510.19;15267980;19;20026;-55
2023/10/24 23:11:27;;;;;;;3.05;2.40;;;;;;;11.13;100.00;97510.13;15278357;19;20010;-56
2023/10/24 23:16:52;;;;;;;3.13;2.50;;;;;;;11.04;100.00;97512.91;15275185;19;20078;-55
2023/10/24 23:22:16;;;;;;;3.35;3.05;;;;;;;11.04;100.00;97518.31;15271999;19;20353;-57
2023/10/24 23:27:43;;;;;;;3.35;3.10;;;;;;;11.03;100.00;97511.25;15276254;19;20018;-57
2023/10/24 23:33:08;;;;;;;3.20;2.90;;;;;;;10.97;100.00;97524.63;15274379;19;20022;-55
2023/10/24 23:38:33;;;;;;;6.25;3.50;;;;;;;10.93;100.00;97516.94;15272563;19;20026;-56
2023/10/24 23:44:00;;;;;;;6.18;3.92;;;;;;;10.95;100.00;97519.44;15269008;19;20029;-56
2023/10/24 23:49:25;;;;;;;4.00;3.60;;;;;;;10.92;100.00;97522.50;15272406;19;20026;-56
2023/10/24 23:54:49;;;;;;;4.03;3.63;;;;;;;10.89;100.00;97520.16;15271267;19;20043;-53
